Time;durP1;ratioP1;P1;durP2;ratioP2;P2;SDS_P1;SDS_P2;PMS_P1;PMS_P2;Temp;Humidity;BMP_temperature;BMP_pressure;BME280_temperature;BME280_humidity;BME280_pressure;Samples;Min_cycle;Max_cycle;Signal;HPM_P1;HPM_P2
2021/09/16 00:02:01;;;;;;;2.50;1.70;;;;;;;;;;5044185;28;20040;-73
2021/09/16 00:04:46;;;;;;;3.60;1.90;;;;;;;;;;5022117;28;20074;-73
2021/09/16 00:07:31;;;;;;;3.03;1.90;;;;;;;;;;5028007;28;20039;-74
2021/09/16 00:10:16;;;;;;;3.38;2.10;;;;;;;;;;5040803;28;20068;-73
2021/09/16 00:13:00;;;;;;;2.40;1.80;;;;;;;;;;5039672;28;20075;-72
2021/09/16 00:15:44;;;;;;;2.10;1.58;;;;;;;;;;5047976;28;20662;-73
2021/09/16 00:18:29;;;;;;;3.15;1.70;;;;;;;;;;5047971;28;20044;-73
2021/09/16 00:21:14;;;;;;;2.83;1.83;;;;;;;;;;5036275;28;20048;-73
2021/09/16 00:23:58;;;;;;;3.78;2.00;;;;;;;;;;5034843;28;20039;-73
2021/09/16 00:26:43;;;;;;;2.65;1.80;;;;;;;;;;5032242;28;20043;-74
2021/09/16 00:29:27;;;;;;;4.25;2.20;;;;;;;;;;5046483;28;20036;-73
2021/09/16 00:32:12;;;;;;;2.85;1.85;;;;;;;;;;5047288;28;20114;-73
2021/09/16 00:34:57;;;;;;;2.53;1.70;;;;;;;;;;5047171;28;20044;-73
2021/09/16 00:37:41;;;;;;;3.30;1.92;;;;;;;;;;5047530;28;20052;-73
2021/09/16 00:40:26;;;;;;;3.53;1.88;;;;;;;;;;5045260;28;20032;-74
2021/09/16 00:43:10;;;;;;;3.17;1.80;;;;;;;;;;5027631;28;20036;-73
2021/09/16 00:46:04;;;;;;;3.10;1.90;;;;;;;;;;5031568;28;20090;-73
2021/09/16 00:48:49;;;;;;;3.35;1.80;;;;;;;;;;5044596;28;20433;-73
2021/09/16 00:51:34;;;;;;;2.78;1.73;;;;;;;;;;5040259;28;20075;-73
2021/09/16 00:54:18;;;;;;;4.10;1.92;;;;;;;;;;5027481;28;20068;-73
2021/09/16 00:57:03;;;;;;;2.45;1.60;;;;;;;;;;5042221;28;20048;-73
2021/09/16 00:59:48;;;;;;;2.95;1.88;;;;;;;;;;5034479;28;20043;-73
2021/09/16 01:02:32;;;;;;;3.83;1.85;;;;;;;;;;5046652;28;20071;-73
2021/09/16 01:05:17;;;;;;;2.58;1.67;;;;;;;;;;5040746;28;20473;-73
2021/09/16 01:08:01;;;;;;;3.25;1.80;;;;;;;;;;5047078;28;20059;-73
2021/09/16 01:10:46;;;;;;;2.83;1.58;;;;;;;;;;5046620;28;20053;-73
2021/09/16 01:13:30;;;;;;;2.45;1.63;;;;;;;;;;5048249;28;20067;-73
2021/09/16 01:16:15;;;;;;;3.67;2.00;;;;;;;;;;5036944;28;20631;-73
2021/09/16 01:18:59;;;;;;;2.92;1.83;;;;;;;;;;5046213;28;20084;-73
2021/09/16 01:21:44;;;;;;;3.78;2.13;;;;;;;;;;5041215;28;20528;-73
2021/09/16 01:24:28;;;;;;;3.08;1.70;;;;;;;;;;5046800;28;20195;-73
2021/09/16 01:27:13;;;;;;;3.42;1.85;;;;;;;;;;5047165;28;20509;-73
2021/09/16 01:29:57;;;;;;;2.92;1.90;;;;;;;;;;5045969;28;20059;-73
2021/09/16 01:32:42;;;;;;;2.75;1.88;;;;;;;;;;5039055;28;20091;-73
2021/09/16 01:35:27;;;;;;;2.95;1.55;;;;;;;;;;5027631;28;20108;-73
2021/09/16 01:38:11;;;;;;;2.72;1.60;;;;;;;;;;5039996;28;20409;-73
2021/09/16 01:40:55;;;;;;;3.05;1.80;;;;;;;;;;5025989;28;20113;-73
2021/09/16 01:43:40;;;;;;;3.35;1.77;;;;;;;;;;5012643;28;20095;-73
2021/09/16 01:46:24;;;;;;;3.47;1.90;;;;;;;;;;5040715;28;20087;-73
2021/09/16 01:49:09;;;;;;;2.80;1.60;;;;;;;;;;5032676;28;20501;-72
2021/09/16 01:51:54;;;;;;;3.05;1.65;;;;;;;;;;5048426;28;20091;-72
2021/09/16 01:54:38;;;;;;;3.92;1.90;;;;;;;;;;5047313;28;20032;-73
2021/09/16 01:57:23;;;;;;;2.65;1.70;;;;;;;;;;5032666;28;20044;-72
2021/09/16 02:00:08;;;;;;;4.28;1.95;;;;;;;;;;5033448;28;20560;-72
2021/09/16 02:02:52;;;;;;;3.33;1.77;;;;;;;;;;5038617;28;20105;-72
2021/09/16 02:05:37;;;;;;;2.45;1.50;;;;;;;;;;5050644;28;20462;-73
2021/09/16 02:08:21;;;;;;;2.88;1.60;;;;;;;;;;5048343;28;20456;-72
2021/09/16 02:11:06;;;;;;;2.80;1.70;;;;;;;;;;5045570;28;20052;-72
2021/09/16 02:13:51;;;;;;;2.20;1.70;;;;;;;;;;5046626;28;20551;-72
2021/09/16 02:16:36;;;;;;;3.72;1.67;;;;;;;;;;5034221;28;20508;-72
2021/09/16 02:19:20;;;;;;;2.10;1.50;;;;;;;;;;5048196;28;20040;-73
2021/09/16 02:22:04;;;;;;;4.38;1.90;;;;;;;;;;5044513;28;20036;-72
2021/09/16 02:24:49;;;;;;;2.83;1.67;;;;;;;;;;5048678;28;20068;-73
2021/09/16 02:27:34;;;;;;;3.85;1.80;;;;;;;;;;5033910;28;20044;-72
2021/09/16 02:30:18;;;;;;;4.22;1.60;;;;;;;;;;5048773;28;20134;-72
2021/09/16 02:33:04;;;;;;;4.13;1.77;;;;;;;;;;5049226;28;20048;-72
2021/09/16 02:35:52;;;;;;;3.15;1.60;;;;;;;;;;5052608;28;20044;-72
2021/09/16 02:38:36;;;;;;;3.42;1.90;;;;;;;;;;5053249;28;20044;-72
2021/09/16 02:41:21;;;;;;;2.80;1.70;;;;;;;;;;5032618;28;20040;-72
2021/09/16 02:44:06;;;;;;;2.70;1.70;;;;;;;;;;5046694;28;20040;-72
2021/09/16 02:46:50;;;;;;;3.10;1.80;;;;;;;;;;5047596;28;20043;-72
2021/09/16 02:49:35;;;;;;;2.58;1.70;;;;;;;;;;5037568;28;20417;-72
2021/09/16 02:52:19;;;;;;;2.88;1.83;;;;;;;;;;5036338;28;20171;-72
2021/09/16 02:55:04;;;;;;;5.00;1.90;;;;;;;;;;5052639;28;20497;-72
2021/09/16 02:57:49;;;;;;;2.58;1.40;;;;;;;;;;5049659;28;20094;-72
2021/09/16 03:00:33;;;;;;;3.10;1.70;;;;;;;;;;5032523;28;20036;-72
2021/09/16 03:03:18;;;;;;;3.97;1.73;;;;;;;;;;5049063;28;20039;-72
2021/09/16 03:06:02;;;;;;;3.22;1.60;;;;;;;;;;5044856;28;20032;-72
2021/09/16 03:08:48;;;;;;;3.60;1.90;;;;;;;;;;5046782;28;20501;-73
2021/09/16 03:11:33;;;;;;;3.33;1.83;;;;;;;;;;5048404;28;20525;-73
2021/09/16 03:14:17;;;;;;;3.08;1.60;;;;;;;;;;5050750;28;20097;-72
2021/09/16 03:17:02;;;;;;;3.50;1.67;;;;;;;;;;5051387;28;20040;-72
2021/09/16 03:19:46;;;;;;;4.47;1.73;;;;;;;;;;5048867;28;20406;-73
2021/09/16 03:22:31;;;;;;;2.85;1.73;;;;;;;;;;5050970;28;20032;-73
2021/09/16 03:25:16;;;;;;;3.50;1.75;;;;;;;;;;5051002;28;20410;-72
2021/09/16 03:28:01;;;;;;;3.92;1.80;;;;;;;;;;5037180;28;20032;-73
2021/09/16 03:30:45;;;;;;;3.78;1.75;;;;;;;;;;5031545;28;20083;-73
2021/09/16 03:33:30;;;;;;;3.00;1.60;;;;;;;;;;5048901;28;20072;-72
2021/09/16 03:36:14;;;;;;;2.72;1.70;;;;;;;;;;5052498;28;20031;-72
2021/09/16 03:38:59;;;;;;;3.42;1.90;;;;;;;;;;5051716;28;20635;-72
2021/09/16 03:41:44;;;;;;;2.67;1.77;;;;;;;;;;5052751;28;20036;-73
2021/09/16 03:44:28;;;;;;;5.13;1.80;;;;;;;;;;5052442;28;20509;-72
2021/09/16 03:47:14;;;;;;;4.38;1.52;;;;;;;;;;5037638;28;20409;-73
2021/09/16 03:49:59;;;;;;;3.65;1.95;;;;;;;;;;5051221;28;20564;-72
2021/09/16 03:52:44;;;;;;;3.35;2.22;;;;;;;;;;5050999;28;20554;-73
2021/09/16 03:55:28;;;;;;;4.90;1.70;;;;;;;;;;5053178;28;20039;-72
2021/09/16 03:58:13;;;;;;;4.15;1.70;;;;;;;;;;5051084;28;20140;-73
2021/09/16 04:00:58;;;;;;;2.88;1.83;;;;;;;;;;5050755;28;20102;-72
2021/09/16 04:03:42;;;;;;;3.47;1.63;;;;;;;;;;5033188;28;20067;-73
2021/09/16 04:06:27;;;;;;;2.65;1.60;;;;;;;;;;5051678;28;20418;-72
2021/09/16 04:09:11;;;;;;;2.78;1.90;;;;;;;;;;5050365;28;20124;-73
2021/09/16 04:11:56;;;;;;;3.83;1.90;;;;;;;;;;5036523;28;20477;-72
2021/09/16 04:14:41;;;;;;;2.80;1.63;;;;;;;;;;5050528;28;20170;-73
2021/09/16 04:17:25;;;;;;;2.80;1.70;;;;;;;;;;5050316;28;20040;-72
2021/09/16 04:20:10;;;;;;;4.55;1.83;;;;;;;;;;5051196;28;20036;-73
2021/09/16 04:22:55;;;;;;;3.40;1.65;;;;;;;;;;5036659;28;20087;-72
2021/09/16 04:25:40;;;;;;;2.90;1.67;;;;;;;;;;5050147;28;20048;-72
2021/09/16 04:28:25;;;;;;;3.33;1.80;;;;;;;;;;5051226;28;20182;-72
2021/09/16 04:31:09;;;;;;;3.20;1.73;;;;;;;;;;5049700;28;20048;-72
2021/09/16 04:33:53;;;;;;;3.70;1.70;;;;;;;;;;5036827;28;20079;-72
2021/09/16 04:36:38;;;;;;;3.72;1.85;;;;;;;;;;5030200;28;20092;-73
2021/09/16 04:39:22;;;;;;;3.10;1.75;;;;;;;;;;5035612;28;20764;-72
2021/09/16 04:42:07;;;;;;;3.80;1.58;;;;;;;;;;5050086;28;20531;-72
2021/09/16 04:44:52;;;;;;;3.10;1.75;;;;;;;;;;5026669;28;20103;-72
2021/09/16 04:47:40;;;;;;;2.47;1.58;;;;;;;;;;5027372;28;20213;-72
2021/09/16 04:50:24;;;;;;;3.13;1.60;;;;;;;;;;5046467;28;20496;-73
2021/09/16 04:53:09;;;;;;;3.78;1.80;;;;;;;;;;5047342;28;20398;-73
2021/09/16 04:55:53;;;;;;;3.33;1.90;;;;;;;;;;5047555;28;20105;-73
2021/09/16 04:58:37;;;;;;;3.08;1.80;;;;;;;;;;5047084;28;20039;-73
2021/09/16 05:01:22;;;;;;;4.90;1.90;;;;;;;;;;5033022;28;20615;-73
2021/09/16 05:04:06;;;;;;;3.53;1.83;;;;;;;;;;5055804;28;20127;-73
2021/09/16 05:06:51;;;;;;;4.10;1.80;;;;;;;;;;5019809;28;20082;-73
2021/09/16 05:09:35;;;;;;;3.70;1.77;;;;;;;;;;5038182;28;20581;-72
2021/09/16 05:12:20;;;;;;;3.20;2.30;;;;;;;;;;5047110;28;20421;-73
2021/09/16 05:15:05;;;;;;;2.83;1.60;;;;;;;;;;5044095;28;20036;-73
2021/09/16 05:17:49;;;;;;;4.50;1.80;;;;;;;;;;5047987;28;20086;-73
2021/09/16 05:20:34;;;;;;;3.25;2.05;;;;;;;;;;5047717;28;20106;-72
2021/09/16 05:23:19;;;;;;;3.90;1.95;;;;;;;;;;5046491;28;20040;-73
2021/09/16 05:26:03;;;;;;;3.28;1.60;;;;;;;;;;5046630;28;20090;-73
2021/09/16 05:28:48;;;;;;;2.80;1.77;;;;;;;;;;5025418;28;20067;-73
2021/09/16 05:31:32;;;;;;;4.03;1.77;;;;;;;;;;5046728;28;20048;-73
2021/09/16 05:34:17;;;;;;;3.50;1.70;;;;;;;;;;5046895;28;20036;-73
2021/09/16 05:37:01;;;;;;;5.15;1.90;;;;;;;;;;5046384;28;20338;-72
2021/09/16 05:39:46;;;;;;;3.97;2.10;;;;;;;;;;5032598;28;20044;-73
2021/09/16 05:42:30;;;;;;;4.40;2.17;;;;;;;;;;5047307;28;20040;-72
2021/09/16 05:45:15;;;;;;;3.60;1.90;;;;;;;;;;5026554;28;20091;-72
2021/09/16 05:48:00;;;;;;;3.35;1.80;;;;;;;;;;5027377;28;20086;-73
2021/09/16 05:50:44;;;;;;;3.85;1.80;;;;;;;;;;5047281;28;20102;-72
2021/09/16 05:53:29;;;;;;;3.63;2.00;;;;;;;;;;5047115;28;20048;-73
2021/09/16 05:56:14;;;;;;;4.70;1.85;;;;;;;;;;5026667;28;20044;-73
2021/09/16 05:58:59;;;;;;;5.18;2.42;;;;;;;;;;5041743;28;20063;-72
2021/09/16 06:01:44;;;;;;;5.45;2.00;;;;;;;;;;5020083;28;20040;-73
2021/09/16 06:04:30;;;;;;;3.10;1.80;;;;;;;;;;5021672;28;20091;-73
2021/09/16 06:07:15;;;;;;;4.45;1.95;;;;;;;;;;5046474;28;20039;-72
2021/09/16 06:09:59;;;;;;;4.28;2.00;;;;;;;;;;5046977;28;20040;-73
2021/09/16 06:12:44;;;;;;;3.72;2.03;;;;;;;;;;5046465;28;20410;-72
2021/09/16 06:15:28;;;;;;;3.60;2.00;;;;;;;;;;5041979;28;20059;-73
2021/09/16 06:18:13;;;;;;;3.67;2.00;;;;;;;;;;5047092;28;20052;-72
2021/09/16 06:20:57;;;;;;;5.72;2.50;;;;;;;;;;5045836;28;20095;-73
2021/09/16 06:23:42;;;;;;;4.43;2.17;;;;;;;;;;5044788;28;20075;-73
2021/09/16 06:26:26;;;;;;;6.15;2.50;;;;;;;;;;5031076;28;20516;-72
2021/09/16 06:29:11;;;;;;;4.53;1.95;;;;;;;;;;5045971;28;20571;-72
2021/09/16 06:31:56;;;;;;;4.85;2.30;;;;;;;;;;5032082;28;20113;-72
2021/09/16 06:34:41;;;;;;;4.22;2.38;;;;;;;;;;5033714;28;20328;-72
2021/09/16 06:37:26;;;;;;;5.65;2.45;;;;;;;;;;5021766;28;20442;-73
2021/09/16 06:40:11;;;;;;;5.30;2.30;;;;;;;;;;5012536;28;20719;-72
2021/09/16 06:42:55;;;;;;;4.05;2.35;;;;;;;;;;5026230;28;20043;-72
2021/09/16 06:45:40;;;;;;;4.20;2.20;;;;;;;;;;5045079;28;20036;-73
2021/09/16 06:48:25;;;;;;;4.80;2.13;;;;;;;;;;5046798;28;20114;-72
2021/09/16 06:51:09;;;;;;;4.90;2.00;;;;;;;;;;5045613;28;20063;-73
2021/09/16 06:53:54;;;;;;;4.43;2.13;;;;;;;;;;5046477;28;20502;-73
2021/09/16 06:56:39;;;;;;;4.25;2.55;;;;;;;;;;5046398;28;20067;-75
2021/09/16 06:59:23;;;;;;;4.93;2.17;;;;;;;;;;5045584;28;20039;-72
2021/09/16 07:02:08;;;;;;;5.75;2.28;;;;;;;;;;5044863;28;20053;-73
2021/09/16 07:04:53;;;;;;;5.55;2.33;;;;;;;;;;5046342;28;20066;-75
2021/09/16 07:07:37;;;;;;;3.03;1.88;;;;;;;;;;5030587;28;20090;-73
2021/09/16 07:10:22;;;;;;;5.22;1.98;;;;;;;;;;5031317;28;20067;-75
2021/09/16 07:13:07;;;;;;;4.10;2.00;;;;;;;;;;5020254;28;20044;-72
2021/09/16 07:15:51;;;;;;;3.88;2.20;;;;;;;;;;5043565;28;20055;-73
2021/09/16 07:18:35;;;;;;;4.10;2.00;;;;;;;;;;5024505;28;20048;-73
2021/09/16 07:21:20;;;;;;;5.55;2.17;;;;;;;;;;5028712;28;20040;-74
2021/09/16 07:24:05;;;;;;;4.22;2.08;;;;;;;;;;5045951;28;20039;-73
2021/09/16 07:26:50;;;;;;;3.95;2.20;;;;;;;;;;5049016;28;20091;-73
2021/09/16 07:29:34;;;;;;;5.03;2.35;;;;;;;;;;5049231;28;20044;-74
2021/09/16 07:32:19;;;;;;;5.35;1.90;;;;;;;;;;5048068;28;20098;-73
2021/09/16 07:35:04;;;;;;;5.63;2.10;;;;;;;;;;5049196;28;20064;-73
2021/09/16 07:37:48;;;;;;;5.15;1.95;;;;;;;;;;5047860;28;20059;-73
2021/09/16 07:40:33;;;;;;;4.72;2.13;;;;;;;;;;5049447;28;20085;-73
2021/09/16 07:43:18;;;;;;;5.57;2.08;;;;;;;;;;5028774;28;20065;-74
2021/09/16 07:46:02;;;;;;;5.40;2.20;;;;;;;;;;5048372;28;20072;-74
2021/09/16 07:48:47;;;;;;;4.47;1.98;;;;;;;;;;5040665;28;20086;-74
2021/09/16 07:51:32;;;;;;;4.93;2.00;;;;;;;;;;5031962;28;20074;-76
2021/09/16 07:54:17;;;;;;;2.80;1.80;;;;;;;;;;5034621;28;20090;-74
2021/09/16 07:57:01;;;;;;;6.65;2.00;;;;;;;;;;5040780;28;20048;-74
2021/09/16 07:59:45;;;;;;;6.55;2.15;;;;;;;;;;5044856;28;20039;-76
2021/09/16 08:02:30;;;;;;;5.78;2.05;;;;;;;;;;5049686;28;20138;-74
2021/09/16 08:05:15;;;;;;;6.50;2.17;;;;;;;;;;5065390;28;20107;-74
2021/09/16 08:08:00;;;;;;;3.90;1.80;;;;;;;;;;5052451;28;20040;-74
2021/09/16 08:10:44;;;;;;;4.65;2.00;;;;;;;;;;5023704;28;20555;-74
2021/09/16 08:13:29;;;;;;;4.20;1.55;;;;;;;;;;5034192;28;20048;-74
2021/09/16 08:16:13;;;;;;;3.97;1.90;;;;;;;;;;5044977;28;20040;-74
2021/09/16 08:18:58;;;;;;;5.53;1.98;;;;;;;;;;5045210;28;20043;-76
2021/09/16 08:21:43;;;;;;;3.45;1.90;;;;;;;;;;5044461;28;20099;-74
2021/09/16 08:24:28;;;;;;;5.68;1.70;;;;;;;;;;5058792;28;20039;-74
2021/09/16 08:27:12;;;;;;;5.18;1.85;;;;;;;;;;5051462;28;20762;-74
2021/09/16 08:29:56;;;;;;;3.28;1.83;;;;;;;;;;5064254;28;20062;-74
2021/09/16 08:32:41;;;;;;;5.40;1.70;;;;;;;;;;5046721;28;20047;-74
2021/09/16 08:35:26;;;;;;;4.82;1.55;;;;;;;;;;5047793;28;20036;-73
2021/09/16 08:38:10;;;;;;;2.33;1.50;;;;;;;;;;5030634;28;20052;-74
2021/09/16 08:40:54;;;;;;;5.20;1.50;;;;;;;;;;5044432;28;20047;-72
2021/09/16 08:43:41;;;;;;;3.75;1.42;;;;;;;;;;5028938;28;20047;-72
2021/09/16 08:46:26;;;;;;;5.25;1.40;;;;;;;;;;5042982;28;20115;-72
2021/09/16 08:49:10;;;;;;;4.53;1.50;;;;;;;;;;5042612;28;20043;-72
2021/09/16 08:51:55;;;;;;;3.45;1.40;;;;;;;;;;5037503;28;20056;-71
2021/09/16 08:54:40;;;;;;;3.63;1.52;;;;;;;;;;5042052;28;20448;-72
2021/09/16 08:57:25;;;;;;;4.22;1.50;;;;;;;;;;5042372;28;20094;-74
2021/09/16 09:00:11;;;;;;;2.83;1.30;;;;;;;;;;5044362;28;20040;-73
2021/09/16 09:02:55;;;;;;;3.63;1.63;;;;;;;;;;5045486;28;20630;-73
2021/09/16 09:05:41;;;;;;;4.38;1.40;;;;;;;;;;5034424;28;20110;-73
2021/09/16 09:08:26;;;;;;;2.95;1.27;;;;;;;;;;5024265;28;20042;-73
2021/09/16 09:11:11;;;;;;;2.53;1.30;;;;;;;;;;5029822;28;20572;-72
2021/09/16 09:13:56;;;;;;;4.30;1.50;;;;;;;;;;5030142;28;20147;-72
2021/09/16 09:16:41;;;;;;;3.42;1.52;;;;;;;;;;5041855;28;20120;-74
2021/09/16 09:19:26;;;;;;;7.20;1.40;;;;;;;;;;5040720;28;20438;-73
2021/09/16 09:22:11;;;;;;;5.43;1.50;;;;;;;;;;5022084;28;20048;-73
2021/09/16 09:25:09;;;;;;;3.15;1.27;;;;;;;;;;5026633;28;20052;-73
2021/09/16 09:27:54;;;;;;;2.25;1.17;;;;;;;;;;5038271;28;20395;-73
2021/09/16 09:30:38;;;;;;;2.97;1.00;;;;;;;;;;5041004;28;20047;-73
2021/09/16 09:33:30;;;;;;;4.65;1.27;;;;;;;;;;5041060;28;20505;-73
2021/09/16 09:36:18;;;;;;;3.58;1.33;;;;;;;;;;5033295;28;20070;-73
2021/09/16 09:39:03;;;;;;;2.88;1.25;;;;;;;;;;5027113;28;20095;-73
2021/09/16 09:41:48;;;;;;;4.03;1.73;;;;;;;;;;5023196;28;20418;-74
2021/09/16 09:44:34;;;;;;;2.33;1.20;;;;;;;;;;5040022;28;20119;-73
2021/09/16 09:47:54;;;;;;;4.22;1.40;;;;;;;;;;5037316;28;20040;-73
2021/09/16 09:50:39;;;;;;;2.72;1.33;;;;;;;;;;4997850;28;20056;-73
2021/09/16 09:53:24;;;;;;;3.60;1.20;;;;;;;;;;5043544;28;20188;-72
2021/09/16 09:56:16;;;;;;;3.55;1.50;;;;;;;;;;5025997;28;20584;-73
2021/09/16 09:59:00;;;;;;;2.95;1.30;;;;;;;;;;5043768;28;20044;-73
2021/09/16 10:01:45;;;;;;;3.28;1.42;;;;;;;;;;5028644;28;20075;-73
2021/09/16 10:04:30;;;;;;;3.80;1.25;;;;;;;;;;5039944;28;20116;-72
2021/09/16 10:07:45;;;;;;;2.05;1.10;;;;;;;;;;5043621;28;20912;-73
2021/09/16 10:10:33;;;;;;;2.95;1.55;;;;;;;;;;5037921;28;20112;-72
2021/09/16 10:13:18;;;;;;;3.22;1.30;;;;;;;;;;5042616;28;20608;-73
2021/09/16 10:16:05;;;;;;;3.78;1.10;;;;;;;;;;5027648;28;20083;-73
2021/09/16 10:18:50;;;;;;;4.82;1.20;;;;;;;;;;5032565;28;20070;-73
2021/09/16 10:21:36;;;;;;;4.25;1.08;;;;;;;;;;5043554;28;20455;-73
2021/09/16 10:24:20;;;;;;;3.65;1.30;;;;;;;;;;5025725;28;20387;-73
2021/09/16 10:27:24;;;;;;;3.00;1.30;;;;;;;;;;5042865;28;20036;-74
2021/09/16 10:30:22;;;;;;;2.22;1.05;;;;;;;;;;5042488;28;20517;-73
2021/09/16 10:33:13;;;;;;;2.28;1.10;;;;;;;;;;5043664;28;20131;-73
2021/09/16 10:35:57;;;;;;;2.70;1.38;;;;;;;;;;5042812;28;20090;-73
2021/09/16 10:38:42;;;;;;;2.38;1.00;;;;;;;;;;5043627;28;20040;-75
2021/09/16 10:41:32;;;;;;;4.05;1.30;;;;;;;;;;5029545;28;20151;-73
2021/09/16 10:44:20;;;;;;;2.28;1.20;;;;;;;;;;5039449;28;20075;-74
2021/09/16 10:47:15;;;;;;;1.73;1.00;;;;;;;;;;5042124;28;20063;-73
2021/09/16 10:50:01;;;;;;;2.90;1.08;;;;;;;;;;5041137;28;20039;-73
2021/09/16 10:52:46;;;;;;;1.77;1.10;;;;;;;;;;5026895;28;20048;-73
2021/09/16 10:55:40;;;;;;;2.70;1.10;;;;;;;;;;5041302;28;20035;-73
2021/09/16 10:58:25;;;;;;;2.83;1.55;;;;;;;;;;5046817;28;20052;-73
2021/09/16 11:01:09;;;;;;;2.47;1.23;;;;;;;;;;5045996;28;20048;-74
2021/09/16 11:03:58;;;;;;;2.88;1.25;;;;;;;;;;5045942;28;20048;-74
2021/09/16 11:06:43;;;;;;;3.78;1.30;;;;;;;;;;5039944;28;20075;-73
2021/09/16 11:09:28;;;;;;;3.40;1.10;;;;;;;;;;5046229;28;20479;-73
2021/09/16 11:12:12;;;;;;;3.38;1.10;;;;;;;;;;5046062;28;20091;-73
2021/09/16 11:14:57;;;;;;;3.65;1.23;;;;;;;;;;5046232;28;20044;-73
2021/09/16 11:17:42;;;;;;;2.10;1.13;;;;;;;;;;5043765;28;20059;-73
2021/09/16 11:20:27;;;;;;;2.85;1.40;;;;;;;;;;5046090;28;20091;-73
2021/09/16 11:23:11;;;;;;;4.18;1.20;;;;;;;;;;5045904;28;20451;-73
2021/09/16 11:25:56;;;;;;;3.85;1.10;;;;;;;;;;5043840;28;20110;-73
2021/09/16 11:28:41;;;;;;;1.73;1.05;;;;;;;;;;5044954;28;20112;-73
2021/09/16 11:31:27;;;;;;;2.63;1.30;;;;;;;;;;5045159;28;20497;-73
2021/09/16 11:34:13;;;;;;;2.50;1.25;;;;;;;;;;5046343;28;20044;-73
2021/09/16 11:37:03;;;;;;;2.45;1.10;;;;;;;;;;5045512;28;20114;-73
2021/09/16 11:39:57;;;;;;;2.47;1.15;;;;;;;;;;5044888;28;20044;-73
2021/09/16 11:42:43;;;;;;;3.22;0.98;;;;;;;;;;5026146;28;20044;-73
2021/09/16 11:45:32;;;;;;;2.92;1.10;;;;;;;;;;5026034;28;20075;-73
2021/09/16 11:48:18;;;;;;;4.15;1.58;;;;;;;;;;5033847;28;20469;-73
2021/09/16 11:51:03;;;;;;;3.28;1.00;;;;;;;;;;5044139;28;20539;-73
2021/09/16 11:53:48;;;;;;;2.97;1.20;;;;;;;;;;5040589;28;20482;-73
2021/09/16 11:56:33;;;;;;;5.63;1.42;;;;;;;;;;5043046;28;20070;-74
2021/09/16 11:59:17;;;;;;;2.00;1.00;;;;;;;;;;5044800;28;20048;-73
2021/09/16 12:02:03;;;;;;;3.97;1.30;;;;;;;;;;5045207;28;20474;-73
2021/09/16 12:04:48;;;;;;;2.03;1.20;;;;;;;;;;5044149;28;20043;-73
2021/09/16 12:07:33;;;;;;;3.08;1.30;;;;;;;;;;5045898;28;20039;-73
2021/09/16 12:10:17;;;;;;;2.88;1.17;;;;;;;;;;5044458;28;20060;-72
2021/09/16 12:13:02;;;;;;;2.47;1.10;;;;;;;;;;5043691;28;20048;-74
2021/09/16 12:15:47;;;;;;;3.35;1.23;;;;;;;;;;5036928;28;20039;-73
2021/09/16 12:18:34;;;;;;;2.83;1.00;;;;;;;;;;5025547;28;20087;-73
2021/09/16 12:21:30;;;;;;;6.03;1.55;;;;;;;;;;5024301;28;20052;-73
2021/09/16 12:24:19;;;;;;;3.05;1.08;;;;;;;;;;5049001;28;20039;-73
2021/09/16 12:27:04;;;;;;;3.30;1.20;;;;;;;;;;5031277;28;20102;-73
2021/09/16 12:29:54;;;;;;;3.50;1.25;;;;;;;;;;5045443;28;20070;-73
2021/09/16 12:32:39;;;;;;;3.47;1.20;;;;;;;;;;5045047;28;20723;-74
2021/09/16 12:35:23;;;;;;;3.50;1.30;;;;;;;;;;5028719;28;20163;-74
2021/09/16 12:38:08;;;;;;;3.08;1.10;;;;;;;;;;5044784;28;20044;-74
2021/09/16 12:40:52;;;;;;;4.05;1.73;;;;;;;;;;5043575;28;20525;-73
2021/09/16 12:43:40;;;;;;;2.25;1.20;;;;;;;;;;5029280;28;20116;-73
2021/09/16 12:46:25;;;;;;;4.10;1.20;;;;;;;;;;5039882;28;20040;-73
2021/09/16 12:49:22;;;;;;;2.15;1.10;;;;;;;;;;5044005;28;20043;-73
2021/09/16 12:52:10;;;;;;;2.55;1.25;;;;;;;;;;5023738;28;20092;-74
2021/09/16 12:54:56;;;;;;;1.92;1.13;;;;;;;;;;5029256;28;20044;-73
2021/09/16 12:57:45;;;;;;;2.90;1.02;;;;;;;;;;5026396;28;20062;-74
2021/09/16 13:00:29;;;;;;;1.55;1.10;;;;;;;;;;5023192;28;20060;-74
2021/09/16 13:03:19;;;;;;;3.58;1.30;;;;;;;;;;5039056;28;20521;-75
2021/09/16 13:06:08;;;;;;;5.13;1.10;;;;;;;;;;5029812;28;20076;-75
2021/09/16 13:08:53;;;;;;;2.60;1.30;;;;;;;;;;5042777;28;20266;-75
2021/09/16 13:11:37;;;;;;;4.05;1.30;;;;;;;;;;5023675;28;20052;-75
2021/09/16 13:14:22;;;;;;;2.40;1.15;;;;;;;;;;5039059;28;20082;-75
2021/09/16 13:17:06;;;;;;;2.85;1.02;;;;;;;;;;5042128;28;20519;-75
2021/09/16 13:19:54;;;;;;;1.63;1.05;;;;;;;;;;5042460;28;20602;-75
2021/09/16 13:22:39;;;;;;;2.90;1.00;;;;;;;;;;5042512;28;20090;-75
2021/09/16 13:25:24;;;;;;;2.67;1.20;;;;;;;;;;5042454;28;20040;-75
2021/09/16 13:28:09;;;;;;;3.88;1.08;;;;;;;;;;5038608;28;20048;-75
2021/09/16 13:30:54;;;;;;;1.70;0.93;;;;;;;;;;5033319;28;20040;-75
2021/09/16 13:33:38;;;;;;;3.05;1.20;;;;;;;;;;5032392;28;20051;-75
2021/09/16 13:36:23;;;;;;;2.85;1.02;;;;;;;;;;5033954;28;20492;-74
2021/09/16 13:39:07;;;;;;;2.35;1.10;;;;;;;;;;5041132;28;20051;-75
2021/09/16 13:41:52;;;;;;;2.63;1.08;;;;;;;;;;5029538;28;20666;-75
2021/09/16 13:44:37;;;;;;;2.08;1.20;;;;;;;;;;5035605;28;20048;-75
2021/09/16 13:47:22;;;;;;;2.50;1.30;;;;;;;;;;5021760;28;20040;-74
2021/09/16 13:50:07;;;;;;;2.13;1.13;;;;;;;;;;5022049;28;20075;-74
2021/09/16 13:52:51;;;;;;;2.72;1.00;;;;;;;;;;5044584;28;20056;-75
2021/09/16 13:55:36;;;;;;;3.15;1.20;;;;;;;;;;5038601;28;20063;-74
2021/09/16 13:58:20;;;;;;;1.90;1.00;;;;;;;;;;5016250;28;20128;-74
2021/09/16 14:01:04;;;;;;;2.13;1.00;;;;;;;;;;5046113;28;20036;-75
2021/09/16 14:03:49;;;;;;;2.53;1.15;;;;;;;;;;5042339;28;20047;-75
2021/09/16 14:06:34;;;;;;;2.72;1.10;;;;;;;;;;5040182;28;20052;-75
2021/09/16 14:09:19;;;;;;;2.38;1.02;;;;;;;;;;5043286;28;20039;-74
2021/09/16 14:12:03;;;;;;;3.03;1.20;;;;;;;;;;5042857;28;20051;-75
2021/09/16 14:14:50;;;;;;;1.65;1.00;;;;;;;;;;5042926;28;20036;-74
2021/09/16 14:17:35;;;;;;;1.83;0.95;;;;;;;;;;5038474;28;20039;-74
2021/09/16 14:20:20;;;;;;;3.85;1.20;;;;;;;;;;5040518;28;20099;-74
2021/09/16 14:23:06;;;;;;;2.05;1.02;;;;;;;;;;5043407;28;20055;-74
2021/09/16 14:25:51;;;;;;;1.88;1.00;;;;;;;;;;5039313;28;20111;-74
2021/09/16 14:28:36;;;;;;;2.85;0.98;;;;;;;;;;5053532;28;20441;-74
2021/09/16 14:31:20;;;;;;;1.52;1.00;;;;;;;;;;5027314;28;20076;-73
2021/09/16 14:34:05;;;;;;;3.00;1.00;;;;;;;;;;5013390;28;20453;-73
2021/09/16 14:36:50;;;;;;;3.10;1.10;;;;;;;;;;5050859;28;20055;-73
2021/09/16 14:39:34;;;;;;;1.92;1.10;;;;;;;;;;5052729;28;20405;-73
2021/09/16 14:42:19;;;;;;;1.70;1.02;;;;;;;;;;5032657;28;20043;-74
2021/09/16 14:45:04;;;;;;;1.67;1.00;;;;;;;;;;5059735;28;20083;-75
2021/09/16 14:47:48;;;;;;;1.55;1.00;;;;;;;;;;5055595;28;20035;-74
2021/09/16 14:50:37;;;;;;;2.42;1.23;;;;;;;;;;5045118;28;20032;-75
2021/09/16 14:53:22;;;;;;;1.95;1.20;;;;;;;;;;5040171;28;20469;-74
2021/09/16 14:56:06;;;;;;;2.33;1.13;;;;;;;;;;5030568;28;20089;-74
2021/09/16 14:58:51;;;;;;;1.92;1.00;;;;;;;;;;5046662;28;20080;-74
2021/09/16 15:01:35;;;;;;;3.03;1.17;;;;;;;;;;5045427;28;20036;-74
2021/09/16 15:04:20;;;;;;;2.47;1.00;;;;;;;;;;5040629;28;20106;-73
2021/09/16 15:07:05;;;;;;;3.13;1.05;;;;;;;;;;5059845;28;20031;-73
2021/09/16 15:09:49;;;;;;;3.67;1.20;;;;;;;;;;5064420;28;20086;-74
2021/09/16 15:12:34;;;;;;;3.45;1.10;;;;;;;;;;5064998;28;20071;-73
2021/09/16 15:15:18;;;;;;;2.58;1.10;;;;;;;;;;5042256;28;20055;-73
2021/09/16 15:18:03;;;;;;;2.25;1.00;;;;;;;;;;5046683;28;20595;-74
2021/09/16 15:20:48;;;;;;;3.67;1.30;;;;;;;;;;5047557;28;20035;-73
2021/09/16 15:23:33;;;;;;;3.25;1.23;;;;;;;;;;5055509;28;20099;-74
2021/09/16 15:26:17;;;;;;;3.17;1.10;;;;;;;;;;5047235;28;20071;-73
2021/09/16 15:29:02;;;;;;;5.78;1.20;;;;;;;;;;5047014;28;20417;-74
2021/09/16 15:31:47;;;;;;;5.80;1.40;;;;;;;;;;5028429;28;20537;-73
2021/09/16 15:34:32;;;;;;;3.20;1.05;;;;;;;;;;5024732;28;20040;-74
2021/09/16 15:37:17;;;;;;;2.22;1.10;;;;;;;;;;5046334;28;20044;-74
2021/09/16 15:40:01;;;;;;;3.70;1.10;;;;;;;;;;5046476;28;20425;-75
2021/09/16 15:42:46;;;;;;;4.93;1.13;;;;;;;;;;5061257;28;20043;-73
2021/09/16 15:45:31;;;;;;;3.30;1.30;;;;;;;;;;5064094;28;20047;-73
2021/09/16 15:48:17;;;;;;;6.10;1.38;;;;;;;;;;5039023;28;20461;-74
2021/09/16 15:51:02;;;;;;;2.63;1.20;;;;;;;;;;5044894;28;20056;-73
2021/09/16 15:53:47;;;;;;;3.83;1.33;;;;;;;;;;5045887;28;20044;-73
2021/09/16 15:56:31;;;;;;;4.95;1.40;;;;;;;;;;5043232;28;20564;-73
2021/09/16 15:59:16;;;;;;;3.60;1.30;;;;;;;;;;5045358;28;20040;-73
2021/09/16 16:02:00;;;;;;;3.53;1.20;;;;;;;;;;5044926;28;20071;-73
2021/09/16 16:04:45;;;;;;;3.95;1.10;;;;;;;;;;5045620;28;20544;-73
2021/09/16 16:07:29;;;;;;;3.33;1.30;;;;;;;;;;5045696;28;20052;-73
2021/09/16 16:10:14;;;;;;;2.88;1.20;;;;;;;;;;5042734;28;20043;-73
2021/09/16 16:12:59;;;;;;;3.92;1.40;;;;;;;;;;5044757;28;20114;-73
2021/09/16 16:15:44;;;;;;;3.75;1.40;;;;;;;;;;5059548;28;20157;-75
2021/09/16 16:18:28;;;;;;;3.75;1.10;;;;;;;;;;5065137;28;20646;-74
2021/09/16 16:21:13;;;;;;;3.53;1.30;;;;;;;;;;5027041;28;20048;-73
2021/09/16 16:23:59;;;;;;;4.13;1.30;;;;;;;;;;5039922;28;20513;-73
2021/09/16 16:26:43;;;;;;;4.50;1.50;;;;;;;;;;5026678;28;20068;-74
2021/09/16 16:29:28;;;;;;;5.38;1.30;;;;;;;;;;5045038;28;20040;-74
2021/09/16 16:32:12;;;;;;;3.55;1.20;;;;;;;;;;5045895;28;20051;-74